Blasdell, New York
Current Conditions -  °F | °C
As of 2:54 AM on Friday 28 Nov 2014 (Local Time) from KBUF Reporting Station
Broken Clouds Broken Clouds  
Wind Chill: 14°   Ceiling: 7000
Heat Index: 24°   Visibility: 10mi
Dew Point: 15°   Wind: 10mph
Humidity: 69%   Direction: 280°W
Pressure: 30.19"   Gusts: NA
Location:  42.7886°N, 78.827°W
Report Text: KBUF 280754Z 28009KT 10SM FEW050 BKN070 BKN100 M04/M09 A3019 RMK AO2 SLP232 T10441094
Loading
Personal Weather Stations






























Interactive Weather Map New forecast layout! Learn more

10-Day Weather Forecast

Advertisements
Track Severe Weather on mobile